Terminal Aerodrome Forecast
Issued by NWS

Home | Current Version | Previous Version | Graphics & Text | Print | Product List | Glossary On
Versions: 1 2 3 4 5 6 7 8 9 10 11 12 13 14 15 16 17 18 19 20 21 22 23 24 25 26 27
000
FTUS43 KABR 051131
TAFMBG
TAF
KMBG 051131Z 0512/0612 08011KT P6SM BKN200
     FM051800 13008KT P6SM FEW250
     FM052100 05010KT P6SM VCTS SCT050CB BKN100
     FM052300 01015KT P6SM VCTS OVC040CB
     FM060200 36013KT P6SM VCTS OVC015CB
     FM060900 35008KT P6SM OVC050=

USA.gov is the U.S. government's official web portal to all federal, state and local government web resources and services.